Time;durP1;ratioP1;P1;durP2;ratioP2;P2;SDS_P1;SDS_P2;PMS_P1;PMS_P2;Temp;Humidity;BMP_temperature;BMP_pressure;BME280_temperature;BME280_humidity;BME280_pressure;Samples;Min_cycle;Max_cycle;Signal;HPM_P1;HPM_P2
2022/08/29 00:02:08;;;;;;;13.20;7.40;;;20.40;50.60;;;;;;5094223;28;20910;-43
2022/08/29 00:04:34;;;;;;;11.13;6.70;;;20.40;50.50;;;;;;5094484;28;20267;-43
2022/08/29 00:07:00;;;;;;;7.73;6.00;;;20.30;50.50;;;;;;5075764;28;20184;-43
2022/08/29 00:09:25;;;;;;;9.87;6.80;;;20.30;50.60;;;;;;5094384;28;20919;-42
2022/08/29 00:11:51;;;;;;;6.47;5.83;;;20.40;50.50;;;;;;5094077;28;20209;-43
2022/08/29 00:14:17;;;;;;;8.57;6.43;;;20.30;50.40;;;;;;5094173;28;20412;-44
2022/08/29 00:16:43;;;;;;;9.33;7.00;;;20.30;50.60;;;;;;5093664;28;20432;-44
2022/08/29 00:19:09;;;;;;;11.93;6.33;;;20.30;50.40;;;;;;5093822;28;20651;-44
2022/08/29 00:21:34;;;;;;;7.37;5.80;;;20.30;50.30;;;;;;5093862;28;20263;-43
2022/08/29 00:24:00;;;;;;;8.60;7.70;;;20.30;50.30;;;;;;5093830;28;20176;-42
2022/08/29 00:26:26;;;;;;;9.30;6.67;;;20.20;50.10;;;;;;5093609;28;20192;-43
2022/08/29 00:28:52;;;;;;;9.07;6.80;;;20.20;50.80;;;;;;5093785;28;20773;-43
2022/08/29 00:31:17;;;;;;;8.57;5.43;;;20.20;50.20;;;;;;5093682;28;20250;-44
2022/08/29 00:33:43;;;;;;;7.33;5.33;;;20.20;50.20;;;;;;5093940;28;20283;-44
2022/08/29 00:36:09;;;;;;;11.50;6.10;;;20.20;50.10;;;;;;5093236;28;20261;-45
2022/08/29 00:38:36;;;;;;;10.83;7.07;;;20.20;50.30;;;;;;5093512;28;20178;-45
2022/08/29 00:41:03;;;;;;;6.60;5.25;;;20.20;50.30;;;;;;5093382;28;20175;-44
2022/08/29 00:43:32;;;;;;;7.97;5.68;;;20.20;50.30;;;;;;5093460;28;20176;-44
2022/08/29 00:46:16;;;;;;;6.57;5.55;;;20.20;50.00;;;;;;5093003;28;20215;-44
2022/08/29 00:48:45;;;;;;;9.32;6.50;;;20.20;50.20;;;;;;5093573;28;20179;-43
2022/08/29 00:51:16;;;;;;;11.00;5.82;;;20.10;50.30;;;;;;5092747;28;20533;-42
2022/08/29 00:53:45;;;;;;;5.80;5.10;;;20.10;50.40;;;;;;5093544;28;20558;-43
2022/08/29 00:56:13;;;;;;;8.23;5.70;;;20.10;50.40;;;;;;5092776;28;20571;-42
2022/08/29 00:58:48;;;;;;;6.15;4.80;;;20.10;50.30;;;;;;5074906;28;20164;-44
2022/08/29 01:01:14;;;;;;;9.18;5.10;;;20.00;51.00;;;;;;5093420;28;20242;-44
2022/08/29 01:03:40;;;;;;;7.15;5.32;;;20.10;50.50;;;;;;5093281;28;20176;-43
2022/08/29 01:06:07;;;;;;;8.65;6.07;;;20.10;50.40;;;;;;5092694;28;20679;-42
2022/08/29 01:08:34;;;;;;;7.57;5.07;;;20.00;50.30;;;;;;5093246;28;20183;-43
2022/08/29 01:13:49;;;;;;;8.00;5.82;;;19.90;50.20;;;;;;5093233;28;20523;-43
2022/08/29 01:16:18;;;;;;;12.52;6.13;;;19.90;50.30;;;;;;5092606;28;20211;-43
2022/08/29 01:18:47;;;;;;;5.60;5.03;;;19.90;50.20;;;;;;5092733;28;20176;-45
2022/08/29 01:21:23;;;;;;;7.72;4.78;;;19.90;50.30;;;;;;5093023;28;20536;-43
2022/08/29 01:24:13;;;;;;;8.48;5.80;;;19.90;50.20;;;;;;5092973;28;20519;-43
2022/08/29 01:26:44;;;;;;;6.28;3.95;;;19.90;50.40;;;;;;5092502;28;20195;-42
2022/08/29 01:29:10;;;;;;;7.57;5.05;;;19.80;50.50;;;;;;5092754;28;20151;-43
2022/08/29 01:31:42;;;;;;;7.60;5.22;;;19.80;50.60;;;;;;5092910;28;20229;-42
2022/08/29 01:34:09;;;;;;;5.88;4.10;;;19.80;50.40;;;;;;5092643;28;20164;-45
2022/08/29 01:36:52;;;;;;;10.75;5.07;;;19.80;50.50;;;;;;5092445;28;20196;-44
2022/08/29 01:39:25;;;;;;;8.05;4.40;;;19.80;50.50;;;;;;5092549;28;20156;-44
2022/08/29 01:41:52;;;;;;;7.10;5.13;;;19.80;50.60;;;;;;5092758;28;20187;-43
2022/08/29 01:44:21;;;;;;;7.18;4.68;;;19.70;50.60;;;;;;5092645;28;20168;-44
2022/08/29 01:46:50;;;;;;;5.00;4.07;;;19.70;50.60;;;;;;5092157;28;20720;-43
2022/08/29 01:49:18;;;;;;;8.52;4.32;;;19.70;50.80;;;;;;5092287;28;20164;-43
2022/08/29 01:51:44;;;;;;;9.05;4.97;;;19.70;50.70;;;;;;5092276;28;20678;-43
2022/08/29 01:54:11;;;;;;;7.38;4.85;;;19.70;50.60;;;;;;5092255;28;20179;-44
2022/08/29 01:56:49;;;;;;;6.50;4.75;;;19.70;50.50;;;;;;5092021;28;20612;-44
2022/08/29 01:59:17;;;;;;;5.72;4.40;;;19.70;50.40;;;;;;5092586;28;20527;-44
2022/08/29 02:01:49;;;;;;;6.57;4.55;;;19.70;50.40;;;;;;5091822;28;20255;-44
2022/08/29 02:04:15;;;;;;;7.10;5.40;;;19.70;50.40;;;;;;5092167;28;20144;-44
2022/08/29 02:06:41;;;;;;;7.32;4.28;;;19.60;50.30;;;;;;5092140;28;20593;-45
2022/08/29 02:09:07;;;;;;;9.65;4.57;;;19.60;50.30;;;;;;5092135;28;20247;-45
2022/08/29 02:11:35;;;;;;;5.97;3.80;;;19.60;50.40;;;;;;5092052;28;20255;-45
2022/08/29 02:14:03;;;;;;;12.68;4.82;;;19.60;50.40;;;;;;5092103;28;20176;-43
2022/08/29 02:16:30;;;;;;;5.50;4.32;;;19.50;50.50;;;;;;5091789;28;20219;-43
2022/08/29 02:18:57;;;;;;;7.18;3.80;;;19.50;50.60;;;;;;5092093;28;20183;-43
2022/08/29 02:21:26;;;;;;;4.85;4.20;;;19.50;50.50;;;;;;5091987;28;20274;-43
2022/08/29 02:23:55;;;;;;;9.73;4.57;;;19.60;50.50;;;;;;5092041;28;20217;-44
2022/08/29 02:26:21;;;;;;;8.35;3.70;;;19.50;50.40;;;;;;5091629;28;20784;-43
2022/08/29 02:28:50;;;;;;;5.47;4.10;;;19.50;50.70;;;;;;5092072;28;20188;-44
2022/08/29 02:31:18;;;;;;;8.63;4.57;;;19.50;50.30;;;;;;5091850;28;20195;-43
2022/08/29 02:33:44;;;;;;;5.53;3.60;;;19.50;50.40;;;;;;5091856;28;20262;-44
2022/08/29 02:36:10;;;;;;;6.45;4.45;;;19.50;50.50;;;;;;5091773;28;20215;-43
2022/08/29 02:38:36;;;;;;;8.10;4.17;;;19.40;50.40;;;;;;5073681;28;20259;-44
2022/08/29 02:41:02;;;;;;;5.60;3.80;;;19.40;50.60;;;;;;5091844;28;20603;-43
2022/08/29 02:43:28;;;;;;;6.67;4.23;;;19.30;50.40;;;;;;5091729;28;20398;-44
2022/08/29 02:45:53;;;;;;;6.90;4.00;;;19.30;50.60;;;;;;5091455;28;20482;-45
2022/08/29 02:48:20;;;;;;;6.20;3.83;;;19.30;50.60;;;;;;5092028;28;20176;-43
2022/08/29 02:50:49;;;;;;;4.57;3.03;;;19.30;50.50;;;;;;5091741;28;20187;-44
2022/08/29 02:53:20;;;;;;;4.18;3.78;;;19.30;50.40;;;;;;5091663;28;20184;-44
2022/08/29 02:55:47;;;;;;;5.30;3.80;;;19.30;50.60;;;;;;5091446;28;20198;-43
2022/08/29 02:58:14;;;;;;;7.07;3.90;;;19.20;50.40;;;;;;5092023;28;20199;-42
2022/08/29 03:00:41;;;;;;;5.88;4.07;;;19.20;50.50;;;;;;5091552;28;20172;-44
2022/08/29 03:03:07;;;;;;;7.50;3.58;;;19.20;51.20;;;;;;5091856;28;20215;-43
2022/08/29 03:05:35;;;;;;;12.35;4.00;;;19.20;50.40;;;;;;5091435;28;20183;-43
2022/08/29 03:08:05;;;;;;;6.90;3.80;;;19.20;50.50;;;;;;5091767;28;20184;-42
2022/08/29 03:10:31;;;;;;;9.75;4.00;;;19.10;50.50;;;;;;5091568;28;20655;-42
2022/08/29 03:12:56;;;;;;;5.83;3.90;;;19.10;50.40;;;;;;5091674;28;20230;-44
2022/08/29 03:15:23;;;;;;;6.23;3.97;;;19.10;50.50;;;;;;5095090;28;20449;-44
2022/08/29 03:17:49;;;;;;;11.65;4.95;;;19.10;50.40;;;;;;5094772;28;20429;-44
2022/08/29 03:20:17;;;;;;;4.80;3.10;;;19.10;50.50;;;;;;5095366;28;20179;-44
2022/08/29 03:22:44;;;;;;;8.43;3.88;;;19.00;50.40;;;;;;5077164;28;20765;-43
2022/08/29 03:25:11;;;;;;;7.28;4.10;;;19.00;50.30;;;;;;5095135;28;20191;-44
2022/08/29 03:27:37;;;;;;;8.13;4.90;;;19.00;50.40;;;;;;5094681;28;20200;-45
2022/08/29 03:30:04;;;;;;;5.03;4.10;;;19.00;50.40;;;;;;5094922;28;20184;-44
2022/08/29 03:32:30;;;;;;;5.93;4.03;;;18.90;50.40;;;;;;5094832;28;20172;-43
2022/08/29 03:34:56;;;;;;;5.87;3.80;;;18.90;50.50;;;;;;5094635;28;20208;-43
2022/08/29 03:37:22;;;;;;;10.13;4.70;;;18.90;50.50;;;;;;5094407;28;20188;-44
2022/08/29 03:39:47;;;;;;;8.77;4.80;;;18.90;50.50;;;;;;5094712;28;20413;-44
2022/08/29 03:42:13;;;;;;;7.30;3.50;;;18.90;50.50;;;;;;5094582;28;20175;-44
2022/08/29 03:44:40;;;;;;;5.90;4.38;;;18.80;50.30;;;;;;5094851;28;20259;-44
2022/08/29 03:47:07;;;;;;;7.40;3.42;;;18.80;50.20;;;;;;5094462;28;20203;-44
2022/08/29 03:49:33;;;;;;;4.50;3.55;;;18.80;50.20;;;;;;5094702;28;20172;-42
2022/08/29 03:52:00;;;;;;;6.75;4.10;;;18.80;50.20;;;;;;5094384;28;20183;-44
2022/08/29 03:54:26;;;;;;;7.00;3.80;;;18.70;50.20;;;;;;5094267;28;20204;-43
2022/08/29 03:56:52;;;;;;;8.45;4.70;;;18.70;50.10;;;;;;5094025;28;20226;-44
2022/08/29 03:59:19;;;;;;;7.20;3.72;;;18.70;50.20;;;;;;5094296;28;20172;-43
2022/08/29 04:01:48;;;;;;;6.68;4.38;;;18.70;50.30;;;;;;5094208;28;20183;-41
2022/08/29 04:07:05;;;;;;;4.88;4.35;;;18.70;50.20;;;;;;5094181;28;20551;-43
2022/08/29 04:09:31;;;;;;;10.80;4.88;;;18.60;50.10;;;;;;5094201;28;20195;-43
2022/08/29 04:11:58;;;;;;;10.68;4.90;;;18.60;50.10;;;;;;5094034;28;20255;-42
2022/08/29 04:14:24;;;;;;;5.47;3.78;;;18.60;50.00;;;;;;5093816;28;20635;-42
2022/08/29 04:16:50;;;;;;;6.28;3.88;;;18.50;50.00;;;;;;5093923;28;20188;-42
2022/08/29 04:19:20;;;;;;;5.87;4.20;;;18.60;50.10;;;;;;5093961;28;20178;-43
2022/08/29 04:21:47;;;;;;;5.53;3.65;;;18.50;50.90;;;;;;5093852;28;20397;-43
2022/08/29 04:24:14;;;;;;;5.97;3.88;;;18.50;50.20;;;;;;5094054;28;20186;-43
2022/08/29 04:26:39;;;;;;;5.22;4.60;;;18.50;50.20;;;;;;5092653;28;20195;-43
2022/08/29 04:29:10;;;;;;;7.20;4.20;;;18.50;50.30;;;;;;5093576;28;20225;-42
2022/08/29 04:31:37;;;;;;;6.65;5.00;;;18.50;50.40;;;;;;5093599;28;20959;-42
2022/08/29 04:34:07;;;;;;;10.27;5.03;;;18.50;50.50;;;;;;5093608;28;20183;-43
2022/08/29 04:36:35;;;;;;;18.05;5.50;;;18.50;50.50;;;;;;5093495;28;20249;-42
2022/08/29 04:39:00;;;;;;;8.57;4.65;;;18.50;50.60;;;;;;5093509;28;20562;-44
2022/08/29 04:41:26;;;;;;;6.33;5.27;;;18.50;50.60;;;;;;5093686;28;20174;-44
2022/08/29 04:43:52;;;;;;;11.70;5.50;;;18.50;50.60;;;;;;5093636;28;20965;-43
2022/08/29 04:46:18;;;;;;;6.30;4.67;;;18.50;50.50;;;;;;5093090;28;20674;-41
2022/08/29 04:48:44;;;;;;;7.60;5.32;;;18.50;50.40;;;;;;5093310;28;20636;-43
2022/08/29 04:51:10;;;;;;;10.88;6.00;;;18.50;50.60;;;;;;5093266;28;20194;-43
2022/08/29 04:53:36;;;;;;;9.47;5.37;;;18.50;50.70;;;;;;5075392;28;20168;-43
2022/08/29 04:56:07;;;;;;;15.48;5.55;;;18.60;50.80;;;;;;5092867;28;20457;-42
2022/08/29 04:58:34;;;;;;;9.30;4.80;;;18.50;50.80;;;;;;5093289;28;20264;-42
2022/08/29 05:01:02;;;;;;;22.67;5.90;;;18.60;50.90;;;;;;5093420;28;20628;-42
2022/08/29 05:03:29;;;;;;;8.88;6.43;;;18.60;50.90;;;;;;5092986;28;20187;-42
2022/08/29 05:06:09;;;;;;;14.38;8.00;;;18.70;51.10;;;;;;5092779;28;20202;-44
2022/08/29 05:08:38;;;;;;;11.63;4.97;;;18.70;51.10;;;;;;5092941;28;20175;-43
2022/08/29 05:11:05;;;;;;;11.90;5.63;;;18.70;51.10;;;;;;5093181;28;20547;-43
2022/08/29 05:13:32;;;;;;;11.68;6.70;;;18.70;51.10;;;;;;5093071;28;20559;-44
2022/08/29 05:15:58;;;;;;;13.02;7.93;;;18.80;51.20;;;;;;5092425;28;20575;-43
2022/08/29 05:18:25;;;;;;;13.68;6.35;;;18.80;51.20;;;;;;5092956;28;20187;-42
2022/08/29 05:20:50;;;;;;;11.18;7.00;;;18.90;51.20;;;;;;5092755;28;20174;-42
2022/08/29 05:23:17;;;;;;;11.33;6.60;;;19.00;51.20;;;;;;5092893;28;20176;-42
2022/08/29 05:25:44;;;;;;;11.05;6.55;;;19.00;51.30;;;;;;5092342;28;20187;-42
2022/08/29 05:28:10;;;;;;;12.18;6.18;;;19.10;51.50;;;;;;5092828;28;20244;-45
2022/08/29 05:30:40;;;;;;;12.27;6.20;;;19.20;51.60;;;;;;5092705;28;20175;-43
2022/08/29 05:33:07;;;;;;;9.63;5.90;;;19.20;51.60;;;;;;5092582;28;20211;-43
2022/08/29 05:35:34;;;;;;;10.05;6.38;;;19.30;51.70;;;;;;5092093;28;20195;-46
2022/08/29 05:38:03;;;;;;;9.00;5.57;;;19.30;51.80;;;;;;5092443;28;20697;-44
2022/08/29 05:40:29;;;;;;;6.78;4.97;;;19.40;52.00;;;;;;5092334;28;20229;-42
2022/08/29 05:42:55;;;;;;;8.00;4.70;;;19.40;51.80;;;;;;5092454;28;20168;-43
2022/08/29 05:45:21;;;;;;;7.57;5.70;;;19.50;51.70;;;;;;5092285;28;20635;-42
2022/08/29 05:47:47;;;;;;;8.32;5.30;;;19.60;51.40;;;;;;5092096;28;20275;-44
2022/08/29 05:50:15;;;;;;;7.70;4.30;;;19.60;51.50;;;;;;5092440;28;20255;-44
2022/08/29 05:52:42;;;;;;;8.38;4.97;;;19.70;51.60;;;;;;5092616;28;20176;-44
2022/08/29 05:55:08;;;;;;;7.15;4.75;;;19.80;51.70;;;;;;5092251;28;20195;-45
2022/08/29 05:57:34;;;;;;;10.23;5.50;;;19.80;51.60;;;;;;5091761;28;20671;-44
2022/08/29 06:00:00;;;;;;;8.60;5.77;;;19.90;51.60;;;;;;5074097;28;20183;-43
2022/08/29 06:02:26;;;;;;;10.50;5.18;;;20.00;51.30;;;;;;5092235;28;20251;-43
2022/08/29 06:04:52;;;;;;;6.30;5.17;;;20.00;50.80;;;;;;5092037;28;20748;-45
2022/08/29 06:07:18;;;;;;;37.10;5.93;;;20.00;50.40;;;;;;5086807;28;20480;-43
2022/08/29 06:09:45;;;;;;;7.77;5.13;;;20.10;50.50;;;;;;5090182;22;20501;-42
2022/08/29 06:12:14;;;;;;;6.47;4.97;;;20.20;50.30;;;;;;5054683;28;20802;-42
2022/08/29 06:14:40;;;;;;;8.10;4.70;;;20.20;49.70;;;;;;5051820;28;20208;-42
2022/08/29 06:17:07;;;;;;;13.75;5.07;;;20.30;49.60;;;;;;5051775;28;20240;-42
2022/08/29 06:19:38;;;;;;;6.50;4.30;;;20.30;49.80;;;;;;5051900;28;20591;-42
2022/08/29 06:22:06;;;;;;;5.80;3.78;;;20.40;49.70;;;;;;5052060;28;20195;-41
2022/08/29 06:24:33;;;;;;;5.82;3.53;;;20.50;49.50;;;;;;5051890;28;20193;-42
2022/08/29 06:27:00;;;;;;;4.88;3.97;;;20.60;49.40;;;;;;5051650;28;20197;-42
2022/08/29 06:29:27;;;;;;;9.23;4.53;;;20.70;49.50;;;;;;5051764;28;20195;-42
2022/08/29 06:31:55;;;;;;;11.02;4.70;;;20.80;49.50;;;;;;5051913;28;20177;-42
2022/08/29 06:34:22;;;;;;;6.25;3.95;;;20.80;48.90;;;;;;5051936;28;20161;-42
2022/08/29 06:36:48;;;;;;;7.43;4.00;;;20.90;48.10;;;;;;5051864;28;20264;-42
2022/08/29 06:39:13;;;;;;;5.43;3.73;;;20.90;47.20;;;;;;5051551;28;20735;-41
2022/08/29 06:41:40;;;;;;;9.70;5.47;;;20.90;47.10;;;;;;5051651;28;20400;-42
2022/08/29 06:44:07;;;;;;;4.93;3.38;;;21.00;47.30;;;;;;5051699;28;20189;-42
2022/08/29 06:46:36;;;;;;;6.45;3.47;;;21.00;47.20;;;;;;5051460;28;20907;-42
2022/08/29 06:49:05;;;;;;;8.05;4.13;;;21.10;47.50;;;;;;5053382;28;20204;-42
2022/08/29 06:51:34;;;;;;;4.82;3.90;;;21.20;47.00;;;;;;5055424;28;20227;-42
2022/08/29 06:54:00;;;;;;;8.25;3.47;;;21.30;46.70;;;;;;5055402;28;20165;-42
2022/08/29 06:56:26;;;;;;;6.03;3.58;;;21.30;45.70;;;;;;5055152;28;20233;-42
2022/08/29 06:58:52;;;;;;;5.00;3.60;;;21.30;45.70;;;;;;5055143;28;20196;-42
2022/08/29 07:01:19;;;;;;;10.27;5.63;;;21.40;45.80;;;;;;5055404;28;20899;-42
2022/08/29 07:03:45;;;;;;;14.98;4.82;;;21.50;45.90;;;;;;5055177;28;20172;-41
2022/08/29 07:06:12;;;;;;;6.40;4.03;;;21.50;44.90;;;;;;5055029;28;20177;-41
2022/08/29 07:08:39;;;;;;;7.65;4.00;;;21.50;44.80;;;;;;5055325;28;20177;-42
2022/08/29 07:11:05;;;;;;;6.15;3.67;;;21.60;45.40;;;;;;5054904;28;20193;-42
2022/08/29 07:13:33;;;;;;;9.05;3.60;;;21.60;45.00;;;;;;5054876;28;20704;-42
2022/08/29 07:15:59;;;;;;;7.35;3.67;;;21.70;44.80;;;;;;5054742;28;20205;-42
2022/08/29 07:18:24;;;;;;;6.93;4.70;;;21.80;44.20;;;;;;5055034;28;20548;-41
2022/08/29 07:20:51;;;;;;;8.63;4.33;;;21.80;43.40;;;;;;5054804;28;20427;-42
2022/08/29 07:23:17;;;;;;;9.65;3.70;;;21.80;43.40;;;;;;5054783;28;20177;-42
2022/08/29 07:25:43;;;;;;;5.53;3.80;;;21.90;43.30;;;;;;5054643;28;20181;-42
2022/08/29 07:28:08;;;;;;;6.70;4.13;;;21.90;43.70;;;;;;5054758;28;20835;-42
2022/08/29 07:30:34;;;;;;;10.03;4.03;;;22.00;43.70;;;;;;5054504;28;20220;-42
2022/08/29 07:33:00;;;;;;;7.73;4.77;;;22.10;43.60;;;;;;5054792;28;20173;-42
2022/08/29 07:35:26;;;;;;;7.13;3.80;;;22.00;43.00;;;;;;5054569;28;20197;-42
2022/08/29 07:37:56;;;;;;;5.33;3.60;;;22.10;43.60;;;;;;5054478;28;20166;-42
2022/08/29 07:40:21;;;;;;;6.22;3.10;;;22.20;42.70;;;;;;5054661;28;20667;-42
2022/08/29 07:42:47;;;;;;;4.67;3.10;;;22.30;42.80;;;;;;5054688;28;20186;-42
2022/08/29 07:45:13;;;;;;;7.73;3.40;;;22.30;43.20;;;;;;5054367;28;20231;-42
2022/08/29 07:47:39;;;;;;;8.10;4.40;;;22.40;43.20;;;;;;5054460;28;20208;-42
2022/08/29 07:50:08;;;;;;;7.23;3.47;;;22.50;43.80;;;;;;5054174;28;20764;-42
2022/08/29 07:52:35;;;;;;;6.20;3.30;;;22.60;42.80;;;;;;5054411;28;20775;-42
2022/08/29 07:55:01;;;;;;;9.43;3.97;;;22.70;42.80;;;;;;5054255;28;20562;-42
2022/08/29 07:57:27;;;;;;;12.98;4.93;;;22.70;42.80;;;;;;5055164;28;20169;-43
2022/08/29 07:59:53;;;;;;;6.40;3.50;;;22.80;42.90;;;;;;5053067;28;20205;-42
2022/08/29 08:02:18;;;;;;;5.57;3.73;;;22.80;41.10;;;;;;5054607;28;20163;-43
2022/08/29 08:04:45;;;;;;;5.57;4.13;;;22.80;41.70;;;;;;5054198;28;20180;-42
2022/08/29 08:07:11;;;;;;;11.67;5.20;;;22.90;42.60;;;;;;5053916;28;20655;-42
2022/08/29 08:09:37;;;;;;;8.40;4.13;;;23.00;41.70;;;;;;5053618;28;21016;-42
2022/08/29 08:12:04;;;;;;;10.30;4.00;;;22.90;41.40;;;;;;5053902;28;20414;-42
2022/08/29 08:14:32;;;;;;;7.90;4.33;;;22.90;40.60;;;;;;5053772;28;20824;-42
2022/08/29 08:16:58;;;;;;;7.23;3.67;;;22.90;41.00;;;;;;5053586;28;20432;-42
2022/08/29 08:19:24;;;;;;;9.00;3.53;;;23.00;41.50;;;;;;5053688;28;20446;-43
2022/08/29 08:21:50;;;;;;;5.57;3.23;;;23.00;40.80;;;;;;5053694;28;20404;-44
2022/08/29 08:24:18;;;;;;;7.33;3.50;;;23.10;41.70;;;;;;5054125;28;20403;-42
2022/08/29 08:26:44;;;;;;;7.97;4.20;;;23.20;40.80;;;;;;5057644;28;20845;-43
2022/08/29 08:29:11;;;;;;;5.87;2.97;;;23.20;40.00;;;;;;5061186;28;20420;-42
2022/08/29 08:31:45;;;;;;;5.23;3.67;;;23.30;40.90;;;;;;5060962;28;20438;-42
2022/08/29 08:34:14;;;;;;;9.47;4.43;;;23.30;40.50;;;;;;5061009;28;20391;-42
2022/08/29 08:36:41;;;;;;;8.77;4.10;;;23.40;39.70;;;;;;5054851;28;20447;-42
2022/08/29 08:39:08;;;;;;;10.00;3.93;;;23.40;40.40;;;;;;5053803;28;20428;-42
2022/08/29 08:41:40;;;;;;;7.63;3.70;;;23.50;39.70;;;;;;5060624;28;20943;-43
2022/08/29 08:44:20;;;;;;;7.03;3.90;;;23.60;39.50;;;;;;5060064;28;20415;-43
2022/08/29 08:46:50;;;;;;;5.97;3.90;;;23.70;39.40;;;;;;5053269;28;20415;-43
2022/08/29 08:49:29;;;;;;;5.67;3.13;;;23.70;39.60;;;;;;5053030;28;20969;-44
2022/08/29 08:52:02;;;;;;;5.87;4.37;;;23.70;39.00;;;;;;5053255;28;20403;-43
2022/08/29 08:54:33;;;;;;;9.50;3.17;;;23.80;38.50;;;;;;5052981;28;20398;-42
2022/08/29 08:57:08;;;;;;;6.30;4.00;;;23.80;38.30;;;;;;5052874;28;20377;-42
2022/08/29 08:59:48;;;;;;;8.90;3.57;;;23.90;38.80;;;;;;5051503;28;20489;-43
2022/08/29 09:02:53;;;;;;;8.37;4.40;;;23.80;38.60;;;;;;5053000;28;20400;-43
2022/08/29 09:05:51;;;;;;;6.60;3.60;;;23.90;39.70;;;;;;4991274;28;20953;-43
2022/08/29 09:08:49;;;;;;;8.70;3.63;;;24.10;39.90;;;;;;4992144;28;20505;-42
2022/08/29 09:11:44;;;;;;;6.07;4.10;;;24.10;38.50;;;;;;4992036;28;20469;-42
2022/08/29 09:14:32;;;;;;;5.43;3.40;;;24.20;38.60;;;;;;4991187;28;20412;-43
2022/08/29 09:17:00;;;;;;;5.03;3.43;;;24.20;38.70;;;;;;4990851;28;20461;-42
2022/08/29 09:19:26;;;;;;;8.10;3.70;;;24.30;39.50;;;;;;4991022;28;20510;-41
2022/08/29 09:21:56;;;;;;;4.97;3.63;;;24.40;38.70;;;;;;4991303;28;20494;-42
2022/08/29 09:24:34;;;;;;;8.03;4.03;;;24.50;38.20;;;;;;4991095;28;20233;-43
2022/08/29 09:27:00;;;;;;;5.77;3.67;;;24.50;37.70;;;;;;4990785;28;20533;-43
2022/08/29 09:29:28;;;;;;;8.97;4.57;;;24.60;37.40;;;;;;4990823;28;20514;-42
2022/08/29 09:32:11;;;;;;;10.03;4.23;;;24.60;37.00;;;;;;4990808;28;20817;-43
2022/08/29 09:34:43;;;;;;;10.83;4.40;;;24.60;37.40;;;;;;4990777;28;20410;-42
2022/08/29 09:37:25;;;;;;;7.63;3.70;;;24.70;37.50;;;;;;5048695;28;20495;-42
2022/08/29 09:40:17;;;;;;;7.00;4.40;;;24.80;38.70;;;;;;5052532;28;20431;-42
2022/08/29 09:42:48;;;;;;;6.80;4.20;;;24.80;37.70;;;;;;5052299;28;20435;-42
2022/08/29 09:45:23;;;;;;;6.60;4.13;;;24.90;37.30;;;;;;5052351;28;20903;-42
2022/08/29 09:48:13;;;;;;;6.50;3.50;;;25.00;36.80;;;;;;5052102;28;20400;-43
2022/08/29 09:50:39;;;;;;;13.07;4.30;;;25.10;37.10;;;;;;5052381;28;20814;-43
2022/08/29 09:53:05;;;;;;;5.80;3.87;;;25.10;36.20;;;;;;5052106;28;20494;-43
2022/08/29 09:55:33;;;;;;;9.03;3.80;;;25.20;35.60;;;;;;5052135;28;20458;-43
2022/08/29 09:58:06;;;;;;;9.20;3.37;;;25.20;36.80;;;;;;5050641;28;20415;-43
2022/08/29 10:00:39;;;;;;;8.80;3.30;;;25.30;36.70;;;;;;5051918;28;20919;-43
2022/08/29 10:03:08;;;;;;;8.20;3.03;;;25.30;36.20;;;;;;5051989;28;20403;-42
2022/08/29 10:05:44;;;;;;;7.73;3.70;;;25.30;36.10;;;;;;5051735;28;20404;-42
2022/08/29 10:08:27;;;;;;;8.93;3.70;;;25.40;34.00;;;;;;5051867;28;20399;-44
2022/08/29 10:11:01;;;;;;;5.80;3.90;;;25.40;34.10;;;;;;5051763;28;20878;-44
2022/08/29 10:14:02;;;;;;;5.23;3.03;;;25.40;35.50;;;;;;5052110;28;20395;-43
2022/08/29 10:19:50;;;;;;;8.83;3.93;;;25.60;35.60;;;;;;5052039;28;20431;-43
2022/08/29 10:22:35;;;;;;;5.20;3.40;;;25.70;36.60;;;;;;5051694;28;20511;-42
2022/08/29 10:25:38;;;;;;;9.67;5.30;;;25.80;35.90;;;;;;5055375;28;20404;-42
2022/08/29 10:28:22;;;;;;;6.27;3.40;;;25.90;34.90;;;;;;5054381;28;20446;-43
2022/08/29 10:30:53;;;;;;;9.47;3.03;;;25.90;35.30;;;;;;5055739;28;20507;-42
2022/08/29 10:33:26;;;;;;;5.70;3.07;;;25.90;33.60;;;;;;5055769;28;20414;-44
2022/08/29 10:35:58;;;;;;;5.93;3.80;;;25.90;33.40;;;;;;5055400;28;20784;-42
2022/08/29 10:38:45;;;;;;;6.53;3.20;;;25.90;34.20;;;;;;5055643;28;20416;-44
2022/08/29 10:41:29;;;;;;;6.37;3.53;;;26.00;35.60;;;;;;5055465;28;20534;-43
2022/08/29 10:44:18;;;;;;;7.70;3.53;;;26.10;34.80;;;;;;5055562;28;20395;-43
2022/08/29 10:47:04;;;;;;;7.80;3.00;;;26.30;35.60;;;;;;5055393;28;20400;-43
2022/08/29 10:49:39;;;;;;;8.40;3.30;;;26.30;34.00;;;;;;5055513;28;20907;-43
2022/08/29 10:52:05;;;;;;;6.70;3.60;;;26.30;34.20;;;;;;5055358;28;20422;-43
2022/08/29 10:54:51;;;;;;;5.43;4.00;;;26.40;33.90;;;;;;5055460;28;20411;-43
2022/08/29 10:57:43;;;;;;;3.70;2.37;;;26.40;33.30;;;;;;5055184;28;20406;-43
2022/08/29 11:00:17;;;;;;;8.00;3.53;;;26.50;33.90;;;;;;5023915;28;20431;-44
2022/08/29 11:03:01;;;;;;;8.37;3.40;;;26.60;34.00;;;;;;5055448;28;20407;-43
2022/08/29 11:05:34;;;;;;;5.80;2.67;;;26.70;32.80;;;;;;5055164;28;20392;-43
2022/08/29 11:08:38;;;;;;;6.77;2.90;;;26.70;33.20;;;;;;5055197;28;20489;-43
2022/08/29 11:11:04;;;;;;;7.70;3.10;;;26.80;33.80;;;;;;5054893;28;20427;-43
2022/08/29 11:13:39;;;;;;;5.13;2.87;;;26.90;33.30;;;;;;5055257;28;20477;-44
2022/08/29 11:16:21;;;;;;;5.27;2.77;;;26.90;32.90;;;;;;5054956;28;20451;-43
2022/08/29 11:19:07;;;;;;;6.60;2.87;;;27.00;33.50;;;;;;5054900;28;20410;-43
2022/08/29 11:21:45;;;;;;;6.50;3.17;;;27.00;34.00;;;;;;5054806;28;20385;-43
2022/08/29 11:24:12;;;;;;;8.20;2.47;;;27.10;32.90;;;;;;5054806;28;20380;-43
2022/08/29 11:26:50;;;;;;;3.50;2.33;;;27.00;31.60;;;;;;5054537;28;20436;-44
2022/08/29 11:29:47;;;;;;;4.63;2.70;;;27.10;33.10;;;;;;5054667;28;20428;-43
2022/08/29 11:32:23;;;;;;;4.70;2.23;;;27.20;34.10;;;;;;5054525;28;20396;-43
2022/08/29 11:35:26;;;;;;;4.60;2.40;;;27.30;33.90;;;;;;5054386;28;20442;-43
2022/08/29 11:38:48;;;;;;;5.37;2.97;;;27.40;33.90;;;;;;5054262;28;20862;-43
2022/08/29 11:41:29;;;;;;;4.43;2.33;;;27.40;32.30;;;;;;4992958;28;20398;-43
2022/08/29 11:44:06;;;;;;;3.60;2.70;;;27.30;32.20;;;;;;4992876;28;20390;-43
2022/08/29 11:46:42;;;;;;;5.63;2.90;;;27.40;33.20;;;;;;4992669;28;20414;-42
2022/08/29 11:49:26;;;;;;;6.87;3.00;;;27.40;32.10;;;;;;4992678;28;20426;-43
2022/08/29 11:51:59;;;;;;;5.50;3.37;;;27.50;32.70;;;;;;4992763;28;20468;-43
2022/08/29 11:54:45;;;;;;;4.73;2.73;;;27.60;32.40;;;;;;4992673;28;20410;-42
2022/08/29 11:57:11;;;;;;;5.50;2.37;;;27.60;33.30;;;;;;4992230;28;20830;-43
2022/08/29 11:59:45;;;;;;;6.47;2.90;;;27.80;33.10;;;;;;4992555;28;20431;-42
2022/08/29 12:02:31;;;;;;;6.30;3.10;;;27.90;33.60;;;;;;4992532;28;20182;-42
2022/08/29 12:05:26;;;;;;;7.73;2.57;;;28.00;33.90;;;;;;4982317;28;20410;-43
2022/08/29 12:08:00;;;;;;;4.73;2.53;;;28.10;34.20;;;;;;4992354;28;20442;-41
2022/08/29 12:10:49;;;;;;;5.73;2.80;;;28.00;31.90;;;;;;4992164;28;20457;-42
2022/08/29 12:13:43;;;;;;;4.70;2.57;;;28.00;32.00;;;;;;5053860;28;20412;-43
2022/08/29 12:16:11;;;;;;;4.80;2.80;;;28.10;32.30;;;;;;5053622;28;20509;-43
2022/08/29 12:18:46;;;;;;;6.60;3.23;;;28.00;31.60;;;;;;5054009;28;20400;-43
2022/08/29 12:21:38;;;;;;;9.60;2.87;;;28.10;31.90;;;;;;5053828;28;20775;-42
2022/08/29 12:24:23;;;;;;;6.23;3.10;;;28.20;32.10;;;;;;5053702;28;20491;-43
2022/08/29 12:26:50;;;;;;;4.07;2.83;;;28.20;31.60;;;;;;5053412;28;20400;-43
2022/08/29 12:29:18;;;;;;;7.30;2.90;;;28.20;32.40;;;;;;5053817;28;20427;-43
2022/08/29 12:32:05;;;;;;;3.60;2.60;;;28.20;32.20;;;;;;5053496;28;20490;-43
2022/08/29 12:35:04;;;;;;;4.40;2.87;;;28.20;30.80;;;;;;5053698;28;20407;-42
2022/08/29 12:37:51;;;;;;;4.63;2.50;;;28.20;32.10;;;;;;5041450;28;20919;-43
2022/08/29 12:40:41;;;;;;;7.63;3.00;;;28.20;32.40;;;;;;5053333;28;20411;-42
2022/08/29 12:43:21;;;;;;;12.10;2.70;;;28.20;31.50;;;;;;5053585;28;20729;-42
2022/08/29 12:45:49;;;;;;;5.03;2.83;;;28.20;33.00;;;;;;5052947;28;20388;-43
2022/08/29 12:48:24;;;;;;;4.30;3.17;;;28.20;33.30;;;;;;5053322;28;20411;-43
2022/08/29 12:50:50;;;;;;;7.47;2.70;;;28.20;32.30;;;;;;5053261;28;20414;-43
2022/08/29 12:53:24;;;;;;;5.03;2.77;;;28.20;32.10;;;;;;5053457;28;20404;-43
2022/08/29 12:55:54;;;;;;;4.70;2.80;;;28.30;33.20;;;;;;5080101;22;20483;-44
2022/08/29 12:58:37;;;;;;;5.30;2.93;;;28.30;32.20;;;;;;5062907;28;20409;-44
2022/08/29 13:01:18;;;;;;;4.40;3.30;;;28.40;33.50;;;;;;5073231;28;20383;-43
2022/08/29 13:03:58;;;;;;;4.50;3.00;;;28.30;32.20;;;;;;5072917;28;20391;-44
2022/08/29 13:06:24;;;;;;;8.40;2.40;;;28.30;31.50;;;;;;5072678;28;20410;-44
2022/08/29 13:08:49;;;;;;;6.73;3.47;;;28.30;31.60;;;;;;5072763;28;20411;-43
2022/08/29 13:11:20;;;;;;;4.27;2.53;;;28.30;31.50;;;;;;5072788;28;20224;-43
2022/08/29 13:13:46;;;;;;;5.87;3.30;;;28.30;31.60;;;;;;5072765;28;20179;-44
2022/08/29 13:16:25;;;;;;;4.30;3.20;;;28.40;32.20;;;;;;5072198;28;20459;-44